sensor_id;sensor_type;location;lat;lon;timestamp;temperature;humidity
15698;DHT22;7949;48.726;9.102;2023-03-01T00:00:14;-2.70;99.90
15698;DHT22;7949;48.726;9.102;2023-03-01T00:02:41;-2.70;99.90
15698;DHT22;7949;48.726;9.102;2023-03-01T00:05:08;-2.80;99.90
15698;DHT22;7949;48.726;9.102;2023-03-01T00:07:34;-2.80;99.90
15698;DHT22;7949;48.726;9.102;2023-03-01T00:10:01;-2.90;99.90
15698;DHT22;7949;48.726;9.102;2023-03-01T00:12:28;-2.90;99.90
15698;DHT22;7949;48.726;9.102;2023-03-01T00:14:57;-3.00;99.90
15698;DHT22;7949;48.726;9.102;2023-03-01T00:17:23;-3.10;99.90
15698;DHT22;7949;48.726;9.102;2023-03-01T00:19:50;-3.00;99.90
15698;DHT22;7949;48.726;9.102;2023-03-01T00:22:17;-3.10;99.90
15698;DHT22;7949;48.726;9.102;2023-03-01T00:24:44;-3.10;99.90
15698;DHT22;7949;48.726;9.102;2023-03-01T00:27:10;-3.10;99.90
15698;DHT22;7949;48.726;9.102;2023-03-01T00:29:37;-3.20;99.90
15698;DHT22;7949;48.726;9.102;2023-03-01T00:32:06;-3.20;99.90
15698;DHT22;7949;48.726;9.102;2023-03-01T00:34:32;-3.20;99.90
15698;DHT22;7949;48.726;9.102;2023-03-01T00:36:59;-3.10;99.90
15698;DHT22;7949;48.726;9.102;2023-03-01T00:39:31;-3.10;99.90
15698;DHT22;7949;48.726;9.102;2023-03-01T00:41:58;-3.10;99.90
15698;DHT22;7949;48.726;9.102;2023-03-01T00:44:25;-3.10;99.90
15698;DHT22;7949;48.726;9.102;2023-03-01T00:46:53;-3.20;99.90
15698;DHT22;7949;48.726;9.102;2023-03-01T00:49:21;-3.20;99.90
15698;DHT22;7949;48.726;9.102;2023-03-01T00:51:49;-3.20;99.90
15698;DHT22;7949;48.726;9.102;2023-03-01T00:54:16;-3.10;99.90
15698;DHT22;7949;48.726;9.102;2023-03-01T00:56:43;-3.10;99.90
15698;DHT22;7949;48.726;9.102;2023-03-01T00:59:09;-3.00;99.90
15698;DHT22;7949;48.726;9.102;2023-03-01T01:01:36;-3.00;99.90
15698;DHT22;7949;48.726;9.102;2023-03-01T01:04:05;-3.00;99.90
15698;DHT22;7949;48.726;9.102;2023-03-01T01:06:36;-3.10;99.90
15698;DHT22;7949;48.726;9.102;2023-03-01T01:09:04;-3.10;99.90
15698;DHT22;7949;48.726;9.102;2023-03-01T01:11:32;-3.20;99.90
15698;DHT22;7949;48.726;9.102;2023-03-01T01:14:00;-3.20;99.90
15698;DHT22;7949;48.726;9.102;2023-03-01T01:16:28;-3.10;99.90
15698;DHT22;7949;48.726;9.102;2023-03-01T01:18:56;-3.20;99.90
15698;DHT22;7949;48.726;9.102;2023-03-01T01:21:24;-3.20;99.90
15698;DHT22;7949;48.726;9.102;2023-03-01T01:23:52;-3.20;99.90
15698;DHT22;7949;48.726;9.102;2023-03-01T01:26:22;-3.20;99.90
15698;DHT22;7949;48.726;9.102;2023-03-01T01:28:49;-3.10;99.90
15698;DHT22;7949;48.726;9.102;2023-03-01T01:31:16;-3.10;99.90
15698;DHT22;7949;48.726;9.102;2023-03-01T01:33:43;-3.20;99.90
15698;DHT22;7949;48.726;9.102;2023-03-01T01:36:10;-3.10;99.90
15698;DHT22;7949;48.726;9.102;2023-03-01T01:38:38;-3.00;99.90
15698;DHT22;7949;48.726;9.102;2023-03-01T01:41:06;-2.90;99.90
15698;DHT22;7949;48.726;9.102;2023-03-01T01:43:35;-2.90;99.90
15698;DHT22;7949;48.726;9.102;2023-03-01T01:46:04;-2.90;99.90
15698;DHT22;7949;48.726;9.102;2023-03-01T01:48:39;-3.00;99.90
15698;DHT22;7949;48.726;9.102;2023-03-01T01:51:11;-2.90;99.90
15698;DHT22;7949;48.726;9.102;2023-03-01T01:53:40;-3.00;99.90
15698;DHT22;7949;48.726;9.102;2023-03-01T01:56:09;-3.00;99.90
15698;DHT22;7949;48.726;9.102;2023-03-01T01:58:37;-3.00;99.90
15698;DHT22;7949;48.726;9.102;2023-03-01T02:01:05;-3.10;99.90
15698;DHT22;7949;48.726;9.102;2023-03-01T02:03:34;-3.10;99.90
15698;DHT22;7949;48.726;9.102;2023-03-01T02:06:12;-3.00;99.90
15698;DHT22;7949;48.726;9.102;2023-03-01T02:08:40;-3.00;99.90
15698;DHT22;7949;48.726;9.102;2023-03-01T02:11:10;-2.80;99.90
15698;DHT22;7949;48.726;9.102;2023-03-01T02:13:40;-2.70;99.90
15698;DHT22;7949;48.726;9.102;2023-03-01T02:16:10;-2.60;99.90
15698;DHT22;7949;48.726;9.102;2023-03-01T02:18:37;-2.60;99.90
15698;DHT22;7949;48.726;9.102;2023-03-01T02:21:13;-2.50;99.90
15698;DHT22;7949;48.726;9.102;2023-03-01T02:23:44;-2.50;99.90
15698;DHT22;7949;48.726;9.102;2023-03-01T02:26:18;-2.40;99.90
15698;DHT22;7949;48.726;9.102;2023-03-01T02:28:48;-2.40;99.90
15698;DHT22;7949;48.726;9.102;2023-03-01T02:31:17;-2.30;99.90
15698;DHT22;7949;48.726;9.102;2023-03-01T02:34:04;-2.10;99.90
15698;DHT22;7949;48.726;9.102;2023-03-01T02:36:35;-2.10;99.90
15698;DHT22;7949;48.726;9.102;2023-03-01T02:39:05;-1.90;99.90
15698;DHT22;7949;48.726;9.102;2023-03-01T02:41:35;-1.90;99.90
15698;DHT22;7949;48.726;9.102;2023-03-01T02:44:05;-1.90;99.90
15698;DHT22;7949;48.726;9.102;2023-03-01T02:46:32;-1.90;99.90
15698;DHT22;7949;48.726;9.102;2023-03-01T02:48:59;-1.90;99.90
15698;DHT22;7949;48.726;9.102;2023-03-01T02:51:34;-2.00;99.90
15698;DHT22;7949;48.726;9.102;2023-03-01T02:54:17;-2.00;99.90
15698;DHT22;7949;48.726;9.102;2023-03-01T02:56:47;-1.90;99.90
15698;DHT22;7949;48.726;9.102;2023-03-01T02:59:17;-1.90;99.90
15698;DHT22;7949;48.726;9.102;2023-03-01T03:01:45;-1.80;99.90
15698;DHT22;7949;48.726;9.102;2023-03-01T03:04:14;-1.80;99.90
15698;DHT22;7949;48.726;9.102;2023-03-01T03:06:43;-1.70;99.90
15698;DHT22;7949;48.726;9.102;2023-03-01T03:09:11;-1.60;99.90
15698;DHT22;7949;48.726;9.102;2023-03-01T03:11:38;-1.60;99.90
15698;DHT22;7949;48.726;9.102;2023-03-01T03:14:06;-1.60;99.90
15698;DHT22;7949;48.726;9.102;2023-03-01T03:16:40;-1.60;99.90
15698;DHT22;7949;48.726;9.102;2023-03-01T03:19:06;-1.50;99.90
15698;DHT22;7949;48.726;9.102;2023-03-01T03:21:33;-1.50;99.90
15698;DHT22;7949;48.726;9.102;2023-03-01T03:24:01;-1.50;99.90
15698;DHT22;7949;48.726;9.102;2023-03-01T03:26:27;-1.50;99.90
15698;DHT22;7949;48.726;9.102;2023-03-01T03:28:54;-1.40;99.90
15698;DHT22;7949;48.726;9.102;2023-03-01T03:31:21;-1.40;99.90
15698;DHT22;7949;48.726;9.102;2023-03-01T03:33:50;-1.40;99.90
15698;DHT22;7949;48.726;9.102;2023-03-01T03:36:17;-1.30;99.90
15698;DHT22;7949;48.726;9.102;2023-03-01T03:38:44;-1.30;99.90
15698;DHT22;7949;48.726;9.102;2023-03-01T03:41:12;-1.30;99.90
15698;DHT22;7949;48.726;9.102;2023-03-01T03:43:40;-1.20;99.90
15698;DHT22;7949;48.726;9.102;2023-03-01T03:46:08;-1.20;99.90
15698;DHT22;7949;48.726;9.102;2023-03-01T03:48:37;-1.20;99.90
15698;DHT22;7949;48.726;9.102;2023-03-01T03:51:05;-1.20;99.90
15698;DHT22;7949;48.726;9.102;2023-03-01T03:53:33;-1.10;99.90
15698;DHT22;7949;48.726;9.102;2023-03-01T03:56:00;-1.10;99.90
15698;DHT22;7949;48.726;9.102;2023-03-01T03:58:26;-1.10;99.90
15698;DHT22;7949;48.726;9.102;2023-03-01T04:00:55;-1.10;99.90
15698;DHT22;7949;48.726;9.102;2023-03-01T04:03:23;-1.10;99.90
15698;DHT22;7949;48.726;9.102;2023-03-01T04:05:51;-1.10;99.90
15698;DHT22;7949;48.726;9.102;2023-03-01T04:08:20;-1.10;99.90
15698;DHT22;7949;48.726;9.102;2023-03-01T04:10:49;-1.10;99.90
15698;DHT22;7949;48.726;9.102;2023-03-01T04:13:19;-1.10;99.90
15698;DHT22;7949;48.726;9.102;2023-03-01T04:15:46;-1.00;99.90
15698;DHT22;7949;48.726;9.102;2023-03-01T04:18:14;-1.00;99.90
15698;DHT22;7949;48.726;9.102;2023-03-01T04:20:42;-1.00;99.90
15698;DHT22;7949;48.726;9.102;2023-03-01T04:23:12;-1.10;99.90
15698;DHT22;7949;48.726;9.102;2023-03-01T04:25:46;-1.00;99.90
15698;DHT22;7949;48.726;9.102;2023-03-01T04:28:15;-1.00;99.90
15698;DHT22;7949;48.726;9.102;2023-03-01T04:30:42;-0.90;99.90
15698;DHT22;7949;48.726;9.102;2023-03-01T04:33:10;-0.90;99.90
15698;DHT22;7949;48.726;9.102;2023-03-01T04:35:37;-0.90;99.90
15698;DHT22;7949;48.726;9.102;2023-03-01T04:38:04;-0.90;99.90
15698;DHT22;7949;48.726;9.102;2023-03-01T04:40:32;-0.90;99.90
15698;DHT22;7949;48.726;9.102;2023-03-01T04:43:00;-1.00;99.90
15698;DHT22;7949;48.726;9.102;2023-03-01T04:45:27;-0.90;99.90
15698;DHT22;7949;48.726;9.102;2023-03-01T04:47:54;-0.80;99.90
15698;DHT22;7949;48.726;9.102;2023-03-01T04:50:23;-0.80;99.90
15698;DHT22;7949;48.726;9.102;2023-03-01T04:52:51;-0.90;99.90
15698;DHT22;7949;48.726;9.102;2023-03-01T04:55:19;-0.90;99.90
15698;DHT22;7949;48.726;9.102;2023-03-01T04:57:46;-1.00;99.90
15698;DHT22;7949;48.726;9.102;2023-03-01T05:00:15;-0.90;99.90
15698;DHT22;7949;48.726;9.102;2023-03-01T05:02:50;-0.90;99.90
15698;DHT22;7949;48.726;9.102;2023-03-01T05:05:20;-0.90;99.90
15698;DHT22;7949;48.726;9.102;2023-03-01T05:07:54;-0.90;99.90
15698;DHT22;7949;48.726;9.102;2023-03-01T05:10:22;-0.80;99.90
15698;DHT22;7949;48.726;9.102;2023-03-01T05:12:49;-0.80;99.90
15698;DHT22;7949;48.726;9.102;2023-03-01T05:15:19;-0.80;99.90
15698;DHT22;7949;48.726;9.102;2023-03-01T05:17:47;-0.80;99.90
15698;DHT22;7949;48.726;9.102;2023-03-01T05:20:14;-0.70;99.90
15698;DHT22;7949;48.726;9.102;2023-03-01T05:22:41;-0.80;99.90
15698;DHT22;7949;48.726;9.102;2023-03-01T05:25:08;-0.80;99.90
15698;DHT22;7949;48.726;9.102;2023-03-01T05:27:35;-0.70;99.90
15698;DHT22;7949;48.726;9.102;2023-03-01T05:30:03;-0.80;99.90
15698;DHT22;7949;48.726;9.102;2023-03-01T05:32:41;-0.70;99.90
15698;DHT22;7949;48.726;9.102;2023-03-01T05:35:10;-0.90;99.90
15698;DHT22;7949;48.726;9.102;2023-03-01T05:37:39;-0.80;99.90
15698;DHT22;7949;48.726;9.102;2023-03-01T05:40:08;-0.80;99.90
15698;DHT22;7949;48.726;9.102;2023-03-01T05:42:42;-0.70;99.90
15698;DHT22;7949;48.726;9.102;2023-03-01T05:45:09;-0.80;99.90
15698;DHT22;7949;48.726;9.102;2023-03-01T05:47:39;-0.90;99.90
15698;DHT22;7949;48.726;9.102;2023-03-01T05:50:13;-0.80;99.90
15698;DHT22;7949;48.726;9.102;2023-03-01T05:52:44;-0.70;99.90
15698;DHT22;7949;48.726;9.102;2023-03-01T05:55:11;-0.70;99.90
15698;DHT22;7949;48.726;9.102;2023-03-01T05:57:38;-0.80;99.90
15698;DHT22;7949;48.726;9.102;2023-03-01T06:00:06;-0.70;99.90
15698;DHT22;7949;48.726;9.102;2023-03-01T06:02:32;-0.80;99.90
15698;DHT22;7949;48.726;9.102;2023-03-01T06:05:01;-0.80;99.90
15698;DHT22;7949;48.726;9.102;2023-03-01T06:07:28;-0.80;99.90
15698;DHT22;7949;48.726;9.102;2023-03-01T06:09:54;-0.80;99.90
15698;DHT22;7949;48.726;9.102;2023-03-01T06:12:21;-0.80;99.90
15698;DHT22;7949;48.726;9.102;2023-03-01T06:14:48;-0.70;99.90
15698;DHT22;7949;48.726;9.102;2023-03-01T06:17:15;-0.80;99.90
15698;DHT22;7949;48.726;9.102;2023-03-01T06:19:42;-0.70;99.90
15698;DHT22;7949;48.726;9.102;2023-03-01T06:22:10;-0.60;99.90
15698;DHT22;7949;48.726;9.102;2023-03-01T06:24:36;-0.70;99.90
15698;DHT22;7949;48.726;9.102;2023-03-01T06:27:03;-0.60;99.90
15698;DHT22;7949;48.726;9.102;2023-03-01T06:29:30;-0.60;99.90
15698;DHT22;7949;48.726;9.102;2023-03-01T06:31:57;-0.50;99.90
15698;DHT22;7949;48.726;9.102;2023-03-01T06:34:24;-0.50;99.90
15698;DHT22;7949;48.726;9.102;2023-03-01T06:36:50;-0.40;99.90
15698;DHT22;7949;48.726;9.102;2023-03-01T16:53:25;4.70;99.90
15698;DHT22;7949;48.726;9.102;2023-03-01T16:56:04;4.70;99.90
15698;DHT22;7949;48.726;9.102;2023-03-01T16:58:31;4.70;99.90
15698;DHT22;7949;48.726;9.102;2023-03-01T17:01:03;4.70;99.90
15698;DHT22;7949;48.726;9.102;2023-03-01T17:03:30;4.70;99.90
15698;DHT22;7949;48.726;9.102;2023-03-01T17:06:00;4.70;99.90
15698;DHT22;7949;48.726;9.102;2023-03-01T17:08:28;4.60;99.90
15698;DHT22;7949;48.726;9.102;2023-03-01T17:10:55;4.60;99.90
15698;DHT22;7949;48.726;9.102;2023-03-01T17:13:27;4.50;99.90
15698;DHT22;7949;48.726;9.102;2023-03-01T17:15:54;4.40;99.90
15698;DHT22;7949;48.726;9.102;2023-03-01T17:18:21;4.40;99.90
15698;DHT22;7949;48.726;9.102;2023-03-01T17:20:48;4.30;99.90
15698;DHT22;7949;48.726;9.102;2023-03-01T17:23:15;4.30;99.90
15698;DHT22;7949;48.726;9.102;2023-03-01T17:25:43;4.30;99.90
15698;DHT22;7949;48.726;9.102;2023-03-01T17:28:11;4.30;99.90
15698;DHT22;7949;48.726;9.102;2023-03-01T17:30:41;4.20;99.90
15698;DHT22;7949;48.726;9.102;2023-03-01T17:33:09;4.00;99.90
15698;DHT22;7949;48.726;9.102;2023-03-01T17:35:36;3.90;99.90
15698;DHT22;7949;48.726;9.102;2023-03-01T17:38:03;3.90;99.90
15698;DHT22;7949;48.726;9.102;2023-03-01T17:40:30;3.80;99.90
15698;DHT22;7949;48.726;9.102;2023-03-01T17:42:58;3.80;99.90
15698;DHT22;7949;48.726;9.102;2023-03-01T17:45:25;3.80;99.90
15698;DHT22;7949;48.726;9.102;2023-03-01T17:47:52;3.70;99.90
15698;DHT22;7949;48.726;9.102;2023-03-01T17:50:19;3.70;99.90
15698;DHT22;7949;48.726;9.102;2023-03-01T17:52:46;3.70;99.90
15698;DHT22;7949;48.726;9.102;2023-03-01T17:55:12;3.70;99.90
15698;DHT22;7949;48.726;9.102;2023-03-01T17:57:40;3.60;99.90
15698;DHT22;7949;48.726;9.102;2023-03-01T18:00:10;3.50;99.90
15698;DHT22;7949;48.726;9.102;2023-03-01T18:02:38;3.50;99.90
15698;DHT22;7949;48.726;9.102;2023-03-01T18:05:05;3.50;99.90
15698;DHT22;7949;48.726;9.102;2023-03-01T18:07:33;3.40;99.90
15698;DHT22;7949;48.726;9.102;2023-03-01T18:10:00;3.30;99.90
15698;DHT22;7949;48.726;9.102;2023-03-01T18:12:27;3.30;99.90
15698;DHT22;7949;48.726;9.102;2023-03-01T18:14:54;3.30;99.90
15698;DHT22;7949;48.726;9.102;2023-03-01T18:17:23;3.20;99.90
15698;DHT22;7949;48.726;9.102;2023-03-01T18:19:51;3.20;99.90
15698;DHT22;7949;48.726;9.102;2023-03-01T18:22:18;3.10;99.90
15698;DHT22;7949;48.726;9.102;2023-03-01T18:24:45;3.00;99.90
15698;DHT22;7949;48.726;9.102;2023-03-01T18:27:12;3.00;99.90
15698;DHT22;7949;48.726;9.102;2023-03-01T18:29:39;3.00;99.90
15698;DHT22;7949;48.726;9.102;2023-03-01T18:32:06;2.80;99.90
15698;DHT22;7949;48.726;9.102;2023-03-01T18:34:34;2.70;99.90
15698;DHT22;7949;48.726;9.102;2023-03-01T18:37:01;2.60;99.90
15698;DHT22;7949;48.726;9.102;2023-03-01T18:39:28;2.60;99.90
15698;DHT22;7949;48.726;9.102;2023-03-01T18:41:55;2.50;99.90
15698;DHT22;7949;48.726;9.102;2023-03-01T18:44:22;2.50;99.90
15698;DHT22;7949;48.726;9.102;2023-03-01T18:46:49;2.40;99.90
15698;DHT22;7949;48.726;9.102;2023-03-01T18:49:17;2.40;99.90
15698;DHT22;7949;48.726;9.102;2023-03-01T18:51:46;2.30;99.90
15698;DHT22;7949;48.726;9.102;2023-03-01T18:54:14;2.30;99.90
15698;DHT22;7949;48.726;9.102;2023-03-01T18:56:41;2.30;99.90
15698;DHT22;7949;48.726;9.102;2023-03-01T18:59:08;2.20;99.90
15698;DHT22;7949;48.726;9.102;2023-03-01T19:01:36;2.10;99.90
15698;DHT22;7949;48.726;9.102;2023-03-01T19:04:03;2.10;99.90
15698;DHT22;7949;48.726;9.102;2023-03-01T19:06:31;2.10;99.90
15698;DHT22;7949;48.726;9.102;2023-03-01T19:09:01;2.10;99.90
15698;DHT22;7949;48.726;9.102;2023-03-01T19:11:28;2.10;99.90
15698;DHT22;7949;48.726;9.102;2023-03-01T19:13:58;2.10;99.90
15698;DHT22;7949;48.726;9.102;2023-03-01T19:16:27;2.10;99.90
15698;DHT22;7949;48.726;9.102;2023-03-01T19:18:56;2.20;99.90
15698;DHT22;7949;48.726;9.102;2023-03-01T19:21:25;2.10;99.90
15698;DHT22;7949;48.726;9.102;2023-03-01T19:23:53;2.10;99.90
15698;DHT22;7949;48.726;9.102;2023-03-01T19:26:24;2.10;99.90
15698;DHT22;7949;48.726;9.102;2023-03-01T19:28:51;2.00;99.90
15698;DHT22;7949;48.726;9.102;2023-03-01T19:31:21;2.00;99.90
15698;DHT22;7949;48.726;9.102;2023-03-01T19:33:50;1.90;99.90
15698;DHT22;7949;48.726;9.102;2023-03-01T19:36:17;2.00;99.90
15698;DHT22;7949;48.726;9.102;2023-03-01T19:38:46;1.90;99.90
15698;DHT22;7949;48.726;9.102;2023-03-01T19:41:14;1.80;99.90
15698;DHT22;7949;48.726;9.102;2023-03-01T19:43:44;1.80;99.90
15698;DHT22;7949;48.726;9.102;2023-03-01T19:46:12;1.70;99.90
15698;DHT22;7949;48.726;9.102;2023-03-01T19:48:39;1.50;99.90
15698;DHT22;7949;48.726;9.102;2023-03-01T19:51:06;1.50;99.90
15698;DHT22;7949;48.726;9.102;2023-03-01T19:53:34;1.50;99.90
15698;DHT22;7949;48.726;9.102;2023-03-01T19:56:01;1.50;99.90
15698;DHT22;7949;48.726;9.102;2023-03-01T19:58:30;1.40;99.90
15698;DHT22;7949;48.726;9.102;2023-03-01T20:00:58;1.30;99.90
15698;DHT22;7949;48.726;9.102;2023-03-01T20:03:26;1.20;99.90
15698;DHT22;7949;48.726;9.102;2023-03-01T20:05:54;1.10;99.90
15698;DHT22;7949;48.726;9.102;2023-03-01T20:08:22;1.10;99.90
15698;DHT22;7949;48.726;9.102;2023-03-01T20:10:49;1.00;99.90
15698;DHT22;7949;48.726;9.102;2023-03-01T20:13:16;0.90;99.90
15698;DHT22;7949;48.726;9.102;2023-03-01T20:15:45;0.70;99.90
15698;DHT22;7949;48.726;9.102;2023-03-01T20:18:14;0.70;99.90
15698;DHT22;7949;48.726;9.102;2023-03-01T20:20:41;0.60;99.90
15698;DHT22;7949;48.726;9.102;2023-03-01T20:23:07;0.50;99.90
15698;DHT22;7949;48.726;9.102;2023-03-01T20:25:34;0.50;99.90
15698;DHT22;7949;48.726;9.102;2023-03-01T20:28:02;0.60;99.90
15698;DHT22;7949;48.726;9.102;2023-03-01T20:30:29;0.50;99.90
15698;DHT22;7949;48.726;9.102;2023-03-01T20:32:56;0.60;99.90
15698;DHT22;7949;48.726;9.102;2023-03-01T20:35:25;0.70;99.90
15698;DHT22;7949;48.726;9.102;2023-03-01T20:37:52;0.60;99.90
15698;DHT22;7949;48.726;9.102;2023-03-01T20:40:19;0.80;99.90
15698;DHT22;7949;48.726;9.102;2023-03-01T20:42:51;0.80;99.90
15698;DHT22;7949;48.726;9.102;2023-03-01T20:45:22;0.80;99.90
15698;DHT22;7949;48.726;9.102;2023-03-01T20:47:50;0.70;99.90
15698;DHT22;7949;48.726;9.102;2023-03-01T20:50:17;0.60;99.90
15698;DHT22;7949;48.726;9.102;2023-03-01T20:52:46;0.60;99.90
15698;DHT22;7949;48.726;9.102;2023-03-01T20:55:13;0.60;99.90
15698;DHT22;7949;48.726;9.102;2023-03-01T20:57:40;0.60;99.90
15698;DHT22;7949;48.726;9.102;2023-03-01T21:00:09;0.60;99.90
15698;DHT22;7949;48.726;9.102;2023-03-01T21:02:42;0.60;99.90
15698;DHT22;7949;48.726;9.102;2023-03-01T21:05:09;0.50;99.90
15698;DHT22;7949;48.726;9.102;2023-03-01T21:07:36;0.60;99.90
15698;DHT22;7949;48.726;9.102;2023-03-01T21:10:05;0.50;99.90
15698;DHT22;7949;48.726;9.102;2023-03-01T21:12:32;0.50;99.90
15698;DHT22;7949;48.726;9.102;2023-03-01T21:14:59;0.40;99.90
15698;DHT22;7949;48.726;9.102;2023-03-01T21:17:26;0.40;99.90
15698;DHT22;7949;48.726;9.102;2023-03-01T21:19:53;0.50;99.90
15698;DHT22;7949;48.726;9.102;2023-03-01T21:22:19;0.50;99.90
15698;DHT22;7949;48.726;9.102;2023-03-01T21:24:46;0.50;99.90
15698;DHT22;7949;48.726;9.102;2023-03-01T21:27:15;0.50;99.90
15698;DHT22;7949;48.726;9.102;2023-03-01T21:29:44;0.60;99.90
15698;DHT22;7949;48.726;9.102;2023-03-01T21:32:15;0.70;99.90
15698;DHT22;7949;48.726;9.102;2023-03-01T21:34:44;0.70;99.90
15698;DHT22;7949;48.726;9.102;2023-03-01T21:37:11;0.70;99.90
15698;DHT22;7949;48.726;9.102;2023-03-01T21:39:38;0.70;99.90
15698;DHT22;7949;48.726;9.102;2023-03-01T21:42:05;0.60;99.90
15698;DHT22;7949;48.726;9.102;2023-03-01T21:44:33;0.70;99.90
15698;DHT22;7949;48.726;9.102;2023-03-01T21:47:00;0.70;99.90
15698;DHT22;7949;48.726;9.102;2023-03-01T21:49:27;0.80;99.90
15698;DHT22;7949;48.726;9.102;2023-03-01T21:51:54;0.70;99.90
15698;DHT22;7949;48.726;9.102;2023-03-01T21:54:21;0.70;99.90
15698;DHT22;7949;48.726;9.102;2023-03-01T21:56:49;0.70;99.90
15698;DHT22;7949;48.726;9.102;2023-03-01T21:59:17;0.70;99.90
15698;DHT22;7949;48.726;9.102;2023-03-01T22:01:46;0.80;99.90
15698;DHT22;7949;48.726;9.102;2023-03-01T22:04:14;0.80;99.90
15698;DHT22;7949;48.726;9.102;2023-03-01T22:06:44;0.80;99.90
15698;DHT22;7949;48.726;9.102;2023-03-01T22:09:13;0.90;99.90
15698;DHT22;7949;48.726;9.102;2023-03-01T22:11:43;1.00;99.90
15698;DHT22;7949;48.726;9.102;2023-03-01T22:14:11;1.00;99.90
15698;DHT22;7949;48.726;9.102;2023-03-01T22:16:38;1.00;99.90
15698;DHT22;7949;48.726;9.102;2023-03-01T22:19:08;1.10;99.90
15698;DHT22;7949;48.726;9.102;2023-03-01T22:21:37;1.10;99.90
15698;DHT22;7949;48.726;9.102;2023-03-01T22:24:05;1.10;99.90
15698;DHT22;7949;48.726;9.102;2023-03-01T22:26:34;1.00;99.90
15698;DHT22;7949;48.726;9.102;2023-03-01T22:29:04;1.00;99.90
15698;DHT22;7949;48.726;9.102;2023-03-01T22:31:32;0.90;99.90
15698;DHT22;7949;48.726;9.102;2023-03-01T22:33:59;1.00;99.90
15698;DHT22;7949;48.726;9.102;2023-03-01T22:36:28;1.00;99.90
15698;DHT22;7949;48.726;9.102;2023-03-01T22:38:55;1.00;99.90
15698;DHT22;7949;48.726;9.102;2023-03-01T22:41:25;0.90;99.90
15698;DHT22;7949;48.726;9.102;2023-03-01T22:43:52;0.90;99.90
15698;DHT22;7949;48.726;9.102;2023-03-01T22:46:20;1.00;99.90
15698;DHT22;7949;48.726;9.102;2023-03-01T22:48:48;1.00;99.90
15698;DHT22;7949;48.726;9.102;2023-03-01T22:51:16;0.90;99.90
15698;DHT22;7949;48.726;9.102;2023-03-01T22:53:45;0.90;99.90
15698;DHT22;7949;48.726;9.102;2023-03-01T22:56:14;0.90;99.90
15698;DHT22;7949;48.726;9.102;2023-03-01T22:58:41;0.80;99.90
15698;DHT22;7949;48.726;9.102;2023-03-01T23:01:13;0.90;99.90
15698;DHT22;7949;48.726;9.102;2023-03-01T23:03:41;0.90;99.90
15698;DHT22;7949;48.726;9.102;2023-03-01T23:06:09;0.80;99.90
15698;DHT22;7949;48.726;9.102;2023-03-01T23:08:36;0.80;99.90
15698;DHT22;7949;48.726;9.102;2023-03-01T23:11:09;0.80;99.90
15698;DHT22;7949;48.726;9.102;2023-03-01T23:13:37;0.80;99.90
15698;DHT22;7949;48.726;9.102;2023-03-01T23:16:05;0.80;99.90
15698;DHT22;7949;48.726;9.102;2023-03-01T23:18:32;0.70;99.90
15698;DHT22;7949;48.726;9.102;2023-03-01T23:20:59;0.70;99.90
15698;DHT22;7949;48.726;9.102;2023-03-01T23:23:26;0.70;99.90
15698;DHT22;7949;48.726;9.102;2023-03-01T23:25:54;0.60;99.90
15698;DHT22;7949;48.726;9.102;2023-03-01T23:28:24;0.70;99.90
15698;DHT22;7949;48.726;9.102;2023-03-01T23:30:55;0.70;99.90
15698;DHT22;7949;48.726;9.102;2023-03-01T23:33:22;0.60;99.90
15698;DHT22;7949;48.726;9.102;2023-03-01T23:35:49;0.60;99.90
15698;DHT22;7949;48.726;9.102;2023-03-01T23:38:17;0.60;99.90
15698;DHT22;7949;48.726;9.102;2023-03-01T23:40:44;0.60;99.90
15698;DHT22;7949;48.726;9.102;2023-03-01T23:43:12;0.60;99.90
15698;DHT22;7949;48.726;9.102;2023-03-01T23:45:40;0.60;99.90
15698;DHT22;7949;48.726;9.102;2023-03-01T23:48:09;0.60;99.90
15698;DHT22;7949;48.726;9.102;2023-03-01T23:50:37;0.60;99.90
15698;DHT22;7949;48.726;9.102;2023-03-01T23:53:08;0.60;99.90
15698;DHT22;7949;48.726;9.102;2023-03-01T23:55:36;0.60;99.90
15698;DHT22;7949;48.726;9.102;2023-03-01T23:58:04;0.60;99.90
